KCGZ/CGZ METAR and TAF weather

Enter ICAO airport designator
Station Type Date Time Source
KCGZ METAR 2019/08/19 06:56 UTC NOAA

KCGZ 190656Z AUTO 22003KT 10SM CLR 28/07 A2986 RMK AO2 SLP094 T02780067 403940233


Station Type Date Time Source
KCGZ Decoded METAR 2019/08/19 06:56 UTC NOAA

Station name not available
Aug 19, 2019 - 02:56 AM EDT / 2019.08.19 0656 UTC
Wind: from the SW (220 degrees) at 3 MPH (3 KT):0
Visibility: 10 mile(s):0
Sky conditions: clear
Temperature: 82.0 F (27.8 C)
Dew Point: 44.1 F (6.7 C)
Relative Humidity: 26%
Pressure (altimeter): 29.86 in. Hg (1011 hPa)
ob: KCGZ 190656Z AUTO 22003KT 10SM CLR 28/07 A2986 RMK AO2 SLP094 T02780067 403940233
cycle: 7

Station Type Date Time Source
KCGZ TAF UTC NOAA

Error!

Example: see airport list